createdAt,value
2018-06-17T00:00:56.584Z,21.82
2018-06-17T00:02:02.567Z,21.77
2018-06-17T00:03:08.215Z,21.77
2018-06-17T00:04:14.091Z,21.77
2018-06-17T00:05:20.107Z,21.75
2018-06-17T00:06:26.385Z,21.74
2018-06-17T00:07:32.350Z,21.72
2018-06-17T00:08:38.389Z,21.71
2018-06-17T00:09:44.395Z,21.70
2018-06-17T00:10:50.396Z,21.67
2018-06-17T00:11:56.387Z,21.67
2018-06-17T00:13:02.343Z,21.65
2018-06-17T00:14:08.323Z,21.64
2018-06-17T00:15:14.347Z,21.63
2018-06-17T00:16:20.368Z,21.61
2018-06-17T00:17:26.352Z,21.60
2018-06-17T00:18:32.302Z,21.58
2018-06-17T00:19:38.250Z,21.57
2018-06-17T00:20:44.284Z,21.54
2018-06-17T00:21:50.612Z,21.55
2018-06-17T00:22:56.620Z,21.52
2018-06-17T00:24:02.576Z,21.51
2018-06-17T00:25:08.527Z,21.51
2018-06-17T00:26:14.582Z,21.50
2018-06-17T00:27:20.586Z,21.51
2018-06-17T00:28:26.758Z,21.50
2018-06-17T00:29:32.709Z,21.44
2018-06-17T00:30:38.678Z,21.44
2018-06-17T00:31:44.695Z,21.43
2018-06-17T00:32:50.682Z,21.41
2018-06-17T00:33:56.756Z,21.42
2018-06-17T00:35:02.706Z,21.40
2018-06-17T00:36:08.647Z,21.38
2018-06-17T00:37:14.657Z,21.38
2018-06-17T00:38:20.625Z,21.36
2018-06-17T00:39:26.564Z,21.36
2018-06-17T00:40:32.193Z,21.34
2018-06-17T00:41:38.183Z,21.34
2018-06-17T00:42:44.162Z,21.32
2018-06-17T00:43:50.128Z,21.32
2018-06-17T00:44:56.059Z,21.30
2018-06-17T00:46:02.021Z,21.29
2018-06-17T00:47:07.985Z,21.26
2018-06-17T00:48:13.956Z,21.26
2018-06-17T00:49:19.944Z,21.26
2018-06-17T00:50:26.028Z,21.25
2018-06-17T00:51:31.977Z,21.24
2018-06-17T00:52:38.176Z,21.24
2018-06-17T00:53:44.162Z,21.24
2018-06-17T00:54:50.115Z,21.24
2018-06-17T00:55:56.110Z,21.20
2018-06-17T00:57:50.789Z,21.20
2018-06-17T00:58:56.784Z,21.15
2018-06-17T01:00:02.762Z,21.13
2018-06-17T01:01:08.750Z,21.11
2018-06-17T01:02:14.721Z,21.13
2018-06-17T01:03:20.712Z,21.12
2018-06-17T01:04:26.690Z,21.11
2018-06-17T01:05:32.680Z,21.10
2018-06-17T01:06:38.693Z,21.08
2018-06-17T01:07:44.654Z,21.08
2018-06-17T01:08:50.633Z,21.07
2018-06-17T01:09:56.400Z,21.03
2018-06-17T01:11:02.270Z,21.01
2018-06-17T01:12:08.239Z,20.99
2018-06-17T01:13:14.303Z,20.98
2018-06-17T01:14:20.243Z,20.96
2018-06-17T01:15:26.297Z,20.94
2018-06-17T01:16:32.273Z,20.94
2018-06-17T01:17:39.080Z,20.93
2018-06-17T01:18:45.078Z,20.92
2018-06-17T01:19:51.040Z,20.88
2018-06-17T01:20:57.046Z,20.85
2018-06-17T01:22:03.243Z,20.83
2018-06-17T01:23:09.203Z,20.80
2018-06-17T01:24:15.527Z,20.76
2018-06-17T01:25:21.498Z,20.74
2018-06-17T01:26:27.439Z,20.73
2018-06-17T01:27:33.383Z,20.70
2018-06-17T01:28:40.294Z,20.67
2018-06-17T01:29:46.386Z,20.63
2018-06-17T01:30:52.336Z,20.63
2018-06-17T01:31:58.339Z,20.61
2018-06-17T01:33:04.268Z,20.57
2018-06-17T01:34:10.206Z,20.56
2018-06-17T01:35:16.142Z,20.55
2018-06-17T01:36:22.098Z,20.54
2018-06-17T01:37:28.076Z,20.54
2018-06-17T01:38:34.035Z,20.50
2018-06-17T01:39:39.652Z,20.50
2018-06-17T01:40:45.545Z,20.49
2018-06-17T01:41:51.531Z,20.47
2018-06-17T01:42:57.487Z,20.47
2018-06-17T01:44:03.433Z,20.43
2018-06-17T01:45:09.530Z,20.44
2018-06-17T01:46:15.536Z,20.44
2018-06-17T01:47:21.470Z,20.43
2018-06-17T01:48:27.750Z,20.42
2018-06-17T01:49:33.707Z,20.40
2018-06-17T01:50:39.374Z,20.41
2018-06-17T01:51:45.171Z,20.40
2018-06-17T01:52:51.420Z,20.40
2018-06-17T01:53:57.394Z,20.38
2018-06-17T01:55:03.021Z,20.38
2018-06-17T01:56:08.896Z,20.35
2018-06-17T01:57:14.864Z,20.34
2018-06-17T01:58:20.815Z,20.33
2018-06-17T01:59:26.798Z,20.31
2018-06-17T02:00:32.764Z,20.30
2018-06-17T02:01:38.699Z,20.29
2018-06-17T02:02:44.662Z,20.30
2018-06-17T02:03:55.944Z,20.25
2018-06-17T02:05:06.873Z,20.22
2018-06-17T02:06:17.865Z,20.19
2018-06-17T02:07:29.281Z,20.15
2018-06-17T02:08:40.350Z,20.15
2018-06-17T02:09:51.442Z,20.14
2018-06-17T02:11:02.715Z,20.14
2018-06-17T02:12:16.755Z,20.13
2018-06-17T02:13:22.714Z,20.10
2018-06-17T02:14:34.011Z,20.07
2018-06-17T02:15:39.954Z,20.06
2018-06-17T02:16:45.966Z,20.04
2018-06-17T02:17:52.139Z,20.02
2018-06-17T02:18:58.194Z,20.01
2018-06-17T02:20:04.246Z,20.02
2018-06-17T02:21:10.289Z,20.00
2018-06-17T02:22:16.339Z,19.98
2018-06-17T02:23:22.294Z,19.96
2018-06-17T02:24:28.260Z,19.97
2018-06-17T02:25:34.212Z,19.95
2018-06-17T02:26:40.174Z,19.95
2018-06-17T02:27:46.171Z,19.94
2018-06-17T02:28:52.134Z,19.94
2018-06-17T02:29:58.100Z,19.92
2018-06-17T02:31:04.080Z,19.92
2018-06-17T02:32:10.032Z,19.92
2018-06-17T02:33:16.006Z,19.92
2018-06-17T02:34:21.947Z,19.92
2018-06-17T02:35:27.932Z,19.90
2018-06-17T02:36:33.859Z,19.90
2018-06-17T02:37:39.859Z,19.89
2018-06-17T02:38:45.848Z,19.87
2018-06-17T02:39:51.802Z,19.86
2018-06-17T02:40:57.774Z,19.84
2018-06-17T02:42:03.864Z,19.83
2018-06-17T02:43:10.128Z,19.80
2018-06-17T02:44:16.111Z,19.79
2018-06-17T02:45:27.246Z,19.78
2018-06-17T02:46:38.348Z,19.76
2018-06-17T02:47:49.525Z,19.75
2018-06-17T02:49:00.618Z,19.74
2018-06-17T02:50:11.592Z,19.73
2018-06-17T02:51:22.578Z,19.71
2018-06-17T02:52:33.783Z,19.70
2018-06-17T02:53:44.846Z,19.69
2018-06-17T02:54:50.803Z,19.68
2018-06-17T02:55:56.808Z,19.67
2018-06-17T02:57:04.290Z,19.66
2018-06-17T02:58:10.216Z,19.65
2018-06-17T02:59:16.183Z,19.66
2018-06-17T03:00:22.151Z,19.65
2018-06-17T03:01:28.138Z,19.65
2018-06-17T03:02:34.103Z,19.67
2018-06-17T03:03:39.788Z,19.67
2018-06-17T03:04:46.008Z,19.65
2018-06-17T03:05:51.969Z,19.66
2018-06-17T03:06:57.971Z,19.65
2018-06-17T03:08:03.943Z,19.66
2018-06-17T03:09:11.022Z,19.66
2018-06-17T03:10:17.042Z,19.68
2018-06-17T03:11:22.891Z,19.68
2018-06-17T03:12:28.807Z,19.66
2018-06-17T03:13:34.774Z,19.67
2018-06-17T03:14:40.409Z,19.66
2018-06-17T03:15:46.296Z,19.67
2018-06-17T03:16:52.537Z,19.67
2018-06-17T03:17:58.518Z,19.63
2018-06-17T03:19:04.474Z,19.62
2018-06-17T03:20:10.778Z,19.62
2018-06-17T03:21:16.412Z,19.59
2018-06-17T03:22:22.298Z,19.62
2018-06-17T03:23:28.296Z,19.60
2018-06-17T03:24:39.489Z,19.61
2018-06-17T03:25:51.063Z,19.60
2018-06-17T03:27:02.235Z,19.60
2018-06-17T03:28:13.344Z,19.62
2018-06-17T03:29:24.446Z,19.61
2018-06-17T03:30:35.429Z,19.65
2018-06-17T03:31:46.523Z,19.62
2018-06-17T03:32:57.616Z,19.63
2018-06-17T03:34:03.851Z,19.64
2018-06-17T03:35:14.970Z,19.65
2018-06-17T03:36:21.058Z,19.68
2018-06-17T03:37:27.061Z,19.70
2018-06-17T03:38:33.011Z,19.66
2018-06-17T03:39:39.006Z,19.68
2018-06-17T03:40:45.021Z,19.69
2018-06-17T03:41:50.979Z,19.70
2018-06-17T03:42:56.910Z,19.70
2018-06-17T03:44:03.062Z,19.71
2018-06-17T03:45:09.071Z,19.69
2018-06-17T03:46:15.051Z,19.69
2018-06-17T03:47:21.047Z,19.69
2018-06-17T03:48:27.179Z,19.71
2018-06-17T03:49:33.868Z,19.70
2018-06-17T03:50:39.864Z,19.73
2018-06-17T03:51:45.945Z,19.73
2018-06-17T03:52:51.911Z,19.72
2018-06-17T03:53:58.219Z,19.73
2018-06-17T03:55:04.192Z,19.71
2018-06-17T03:56:10.159Z,19.73
2018-06-17T03:57:16.151Z,19.74
2018-06-17T03:58:22.135Z,19.76
2018-06-17T03:59:28.107Z,19.77
2018-06-17T04:00:34.076Z,19.76
2018-06-17T04:01:39.721Z,19.81
2018-06-17T04:02:45.914Z,19.83
2018-06-17T04:03:51.695Z,19.84
2018-06-17T04:05:02.943Z,19.87
2018-06-17T04:06:08.919Z,19.90
2018-06-17T04:07:14.848Z,19.94
2018-06-17T04:08:20.817Z,20.00
2018-06-17T04:09:26.790Z,20.05
2018-06-17T04:10:32.756Z,20.09
2018-06-17T04:11:38.816Z,20.12
2018-06-17T04:12:44.794Z,20.16
2018-06-17T04:13:50.774Z,20.19
2018-06-17T04:14:56.755Z,20.21
2018-06-17T04:16:02.901Z,20.24
2018-06-17T04:17:13.674Z,20.27
2018-06-17T04:18:19.657Z,20.29
2018-06-17T04:19:26.041Z,20.29
2018-06-17T04:20:32.014Z,20.31
2018-06-17T04:21:37.989Z,20.34
2018-06-17T04:22:43.907Z,20.34
2018-06-17T04:23:49.852Z,20.35
2018-06-17T04:24:55.894Z,20.38
2018-06-17T04:26:01.851Z,20.39
2018-06-17T04:27:08.308Z,20.45
2018-06-17T04:28:14.269Z,20.44
2018-06-17T04:29:20.222Z,20.45
2018-06-17T04:30:26.222Z,20.45
2018-06-17T04:31:32.259Z,20.47
2018-06-17T04:32:38.411Z,20.47
2018-06-17T04:33:44.371Z,20.50
2018-06-17T04:34:50.311Z,20.48
2018-06-17T04:35:56.493Z,20.48
2018-06-17T04:37:02.440Z,20.48
2018-06-17T04:38:08.409Z,20.46
2018-06-17T04:39:14.366Z,20.47
2018-06-17T04:40:20.311Z,20.48
2018-06-17T04:41:26.306Z,20.50
2018-06-17T04:42:32.323Z,20.51
2018-06-17T04:43:38.265Z,20.53
2018-06-17T04:44:43.893Z,20.56
2018-06-17T04:45:49.890Z,20.58
2018-06-17T04:46:55.890Z,20.57
2018-06-17T04:48:01.864Z,20.59
2018-06-17T04:49:07.838Z,20.61
2018-06-17T04:50:13.826Z,20.61
2018-06-17T04:51:19.782Z,20.65
2018-06-17T04:52:25.778Z,20.69
2018-06-17T04:53:31.875Z,20.69
2018-06-17T04:54:37.944Z,20.72
2018-06-17T04:55:43.935Z,20.74
2018-06-17T04:56:49.820Z,20.75
2018-06-17T04:57:55.809Z,20.76
2018-06-17T04:59:01.776Z,20.78
2018-06-17T05:00:08.003Z,20.82
2018-06-17T05:01:14.094Z,20.83
2018-06-17T05:02:20.077Z,20.85
2018-06-17T05:03:26.043Z,20.88
2018-06-17T05:04:32.015Z,20.90
2018-06-17T05:05:37.961Z,20.91
2018-06-17T05:06:43.898Z,20.94
2018-06-17T05:07:49.874Z,20.96
2018-06-17T05:08:55.858Z,21.00
2018-06-17T05:10:01.951Z,21.01
2018-06-17T05:11:07.921Z,21.03
2018-06-17T05:12:13.889Z,21.08
2018-06-17T05:13:19.850Z,21.09
2018-06-17T05:14:26.250Z,21.15
2018-06-17T05:15:32.571Z,21.19
2018-06-17T05:16:38.564Z,21.23
2018-06-17T05:17:44.623Z,21.26
2018-06-17T05:18:50.631Z,21.30
2018-06-17T05:19:56.590Z,21.35
2018-06-17T05:21:02.546Z,21.38
2018-06-17T05:22:08.549Z,21.42
2018-06-17T05:23:14.567Z,21.43
2018-06-17T05:24:20.555Z,21.47
2018-06-17T05:25:26.531Z,21.52
2018-06-17T05:26:32.495Z,21.57
2018-06-17T05:27:38.105Z,21.58
2018-06-17T05:28:43.999Z,21.62
2018-06-17T05:29:50.059Z,21.67
2018-06-17T05:30:56.107Z,21.69
2018-06-17T05:32:02.048Z,21.72
2018-06-17T05:33:08.054Z,21.76
2018-06-17T05:34:14.026Z,21.76
2018-06-17T05:35:19.974Z,21.78
2018-06-17T05:36:26.047Z,21.81
2018-06-17T05:37:32.059Z,21.82
2018-06-17T05:38:38.042Z,21.83
2018-06-17T05:39:44.038Z,21.88
2018-06-17T05:40:49.996Z,21.94
2018-06-17T05:41:55.991Z,21.96
2018-06-17T05:43:02.001Z,21.95
2018-06-17T05:44:08.374Z,21.96
2018-06-17T05:45:14.428Z,21.98
2018-06-17T05:46:20.476Z,22.00
2018-06-17T05:47:26.470Z,22.01
2018-06-17T05:48:32.620Z,22.06
2018-06-17T05:49:38.563Z,22.09
2018-06-17T05:50:44.527Z,22.16
2018-06-17T05:51:50.517Z,22.23
2018-06-17T05:52:56.492Z,22.40
2018-06-17T05:54:02.476Z,22.74
2018-06-17T05:55:08.455Z,23.25
2018-06-17T05:56:14.717Z,23.78
2018-06-17T05:57:20.753Z,24.33
2018-06-17T05:58:26.462Z,24.79
2018-06-17T05:59:33.181Z,25.07
2018-06-17T06:00:39.173Z,25.25
2018-06-17T06:01:45.135Z,25.49
2018-06-17T06:02:51.094Z,25.84
2018-06-17T06:03:57.175Z,26.29
2018-06-17T06:05:03.280Z,26.85
2018-06-17T06:06:08.982Z,27.40
2018-06-17T06:07:14.878Z,27.96
2018-06-17T06:08:20.859Z,28.42
2018-06-17T06:09:27.258Z,28.97
2018-06-17T06:10:33.196Z,29.50
2018-06-17T06:11:39.279Z,29.97
2018-06-17T06:12:45.199Z,30.40
2018-06-17T06:13:51.280Z,30.79
2018-06-17T06:14:57.011Z,31.13
2018-06-17T06:16:02.870Z,31.46
2018-06-17T06:17:08.834Z,31.87
2018-06-17T06:18:15.116Z,32.01
2018-06-17T06:19:21.029Z,32.33
2018-06-17T06:20:27.023Z,32.62
2018-06-17T06:21:33.187Z,32.89
2018-06-17T06:22:39.582Z,33.04
2018-06-17T06:23:45.544Z,33.19
2018-06-17T06:24:51.475Z,33.55
2018-06-17T06:25:57.526Z,33.80
2018-06-17T06:27:03.455Z,34.09
2018-06-17T06:28:09.387Z,34.18
2018-06-17T06:29:15.364Z,34.47
2018-06-17T06:30:21.299Z,34.66
2018-06-17T06:31:27.281Z,34.88
2018-06-17T06:32:33.246Z,34.96
2018-06-17T06:33:39.203Z,35.25
2018-06-17T06:34:45.141Z,35.37
2018-06-17T06:35:51.123Z,35.60
2018-06-17T06:36:57.143Z,35.80
2018-06-17T06:38:03.143Z,35.93
2018-06-17T06:39:11.083Z,36.08
2018-06-17T06:40:17.055Z,36.14
2018-06-17T06:41:22.775Z,36.01
2018-06-17T06:42:28.673Z,36.05
2018-06-17T06:43:34.629Z,36.05
2018-06-17T06:44:40.568Z,36.09
2018-06-17T06:45:46.526Z,36.43
2018-06-17T06:46:52.277Z,36.56
2018-06-17T06:47:58.254Z,36.71
2018-06-17T06:49:04.195Z,36.79
2018-06-17T06:50:10.157Z,36.86
2018-06-17T06:51:16.124Z,36.82
2018-06-17T06:52:22.081Z,36.76
2018-06-17T06:53:28.077Z,36.66
2018-06-17T06:54:34.004Z,36.57
2018-06-17T06:55:40.402Z,36.60
2018-06-17T06:56:46.327Z,36.61
2018-06-17T06:57:52.282Z,36.76
2018-06-17T06:58:58.318Z,37.11
2018-06-17T07:00:04.396Z,37.46
2018-06-17T07:01:10.375Z,37.65
2018-06-17T07:02:33.126Z,37.88
2018-06-17T07:03:55.739Z,38.01
2018-06-17T07:05:18.536Z,37.74
2018-06-17T07:07:43.996Z,37.18
2018-06-17T07:09:06.799Z,36.70
2018-06-17T07:10:26.370Z,36.55
2018-06-17T07:11:32.374Z,36.85
2018-06-17T07:12:38.321Z,37.03
2018-06-17T07:13:44.271Z,37.15
2018-06-17T07:14:50.219Z,37.26
2018-06-17T07:16:13.078Z,37.39
2018-06-17T07:17:35.714Z,37.44
2018-06-17T07:18:42.186Z,37.72
2018-06-17T07:19:48.234Z,37.92
2018-06-17T07:20:54.294Z,38.09
2018-06-17T07:22:00.637Z,38.12
2018-06-17T07:23:06.454Z,38.17
2018-06-17T07:24:12.133Z,38.24
2018-06-17T07:26:35.652Z,38.46
2018-06-17T07:29:05.832Z,38.92
2018-06-17T07:30:15.185Z,39.63
2018-06-17T07:31:22.957Z,39.93
2018-06-17T07:32:28.871Z,40.21
2018-06-17T07:33:34.543Z,40.48
2018-06-17T07:34:40.256Z,40.53
2018-06-17T07:35:45.965Z,40.36
2018-06-17T07:36:51.650Z,39.98
2018-06-17T07:37:57.471Z,39.45
2018-06-17T07:40:17.907Z,38.97
2018-06-17T07:41:23.579Z,38.47
2018-06-17T07:42:29.292Z,38.49
2018-06-17T07:43:35.012Z,38.29
2018-06-17T07:44:40.708Z,37.93
2018-06-17T07:45:46.571Z,37.42
2018-06-17T07:46:52.375Z,36.91
2018-06-17T07:47:58.582Z,36.24
2018-06-17T07:49:48.904Z,35.81
2018-06-17T07:51:11.795Z,35.11
2018-06-17T07:52:36.731Z,35.27
2018-06-17T07:53:42.682Z,35.63
2018-06-17T07:54:49.011Z,35.96
2018-06-17T07:55:55.062Z,36.22
2018-06-17T07:57:03.231Z,36.42
2018-06-17T07:58:09.879Z,36.78
2018-06-17T07:59:17.582Z,37.08
2018-06-17T08:00:24.296Z,37.26
2018-06-17T08:01:30.525Z,37.53
2018-06-17T08:02:36.543Z,37.79
2018-06-17T08:03:42.485Z,38.15
2018-06-17T08:04:49.806Z,38.41
2018-06-17T08:05:56.666Z,38.66
2018-06-17T08:07:02.361Z,38.76
2018-06-17T08:08:08.119Z,38.70
2018-06-17T08:09:13.890Z,38.56
2018-06-17T08:10:19.593Z,38.26
2018-06-17T08:11:25.271Z,38.01
2018-06-17T08:12:31.197Z,37.82
2018-06-17T08:13:37.310Z,37.84
2018-06-17T08:14:43.272Z,38.00
2018-06-17T08:15:49.456Z,38.32
2018-06-17T08:16:56.034Z,38.68
2018-06-17T08:18:02.173Z,38.82
2018-06-17T08:19:09.104Z,38.80
2018-06-17T08:20:14.784Z,38.69
2018-06-17T08:21:20.683Z,38.39
2018-06-17T08:22:26.514Z,37.97
2018-06-17T08:23:32.186Z,37.95
2018-06-17T08:24:38.485Z,37.64
2018-06-17T08:25:44.512Z,37.39
2018-06-17T08:26:50.206Z,36.91
2018-06-17T08:27:56.257Z,36.54
2018-06-17T08:29:02.241Z,36.19
2018-06-17T08:30:09.364Z,35.99
2018-06-17T08:31:15.847Z,36.11
2018-06-17T08:32:21.539Z,36.05
2018-06-17T08:33:27.407Z,36.10
2018-06-17T08:34:34.003Z,36.16
2018-06-17T08:35:41.203Z,36.30
2018-06-17T08:36:49.036Z,36.35
2018-06-17T08:37:56.689Z,36.16
2018-06-17T08:39:04.261Z,36.27
2018-06-17T08:40:11.644Z,36.16
2018-06-17T08:41:18.467Z,35.84
2018-06-17T08:42:25.442Z,35.41
2018-06-17T08:43:32.240Z,34.97
2018-06-17T08:44:39.145Z,34.55
2018-06-17T08:45:45.239Z,34.21
2018-06-17T08:46:51.653Z,33.91
2018-06-17T08:48:00.163Z,33.69
2018-06-17T08:49:07.428Z,33.30
2018-06-17T08:50:14.518Z,33.22
2018-06-17T08:51:25.365Z,33.24
2018-06-17T08:52:32.548Z,33.42
2018-06-17T08:53:39.171Z,33.67
2018-06-17T08:54:46.083Z,34.27
2018-06-17T08:55:52.946Z,34.80
2018-06-17T08:57:00.505Z,35.28
2018-06-17T08:58:07.185Z,35.81
2018-06-17T08:59:14.050Z,36.28
2018-06-17T09:00:20.459Z,36.45
2018-06-17T09:01:26.973Z,36.39
2018-06-17T09:02:34.539Z,36.12
2018-06-17T09:03:41.577Z,35.74
2018-06-17T09:04:49.472Z,35.39
2018-06-17T09:05:56.603Z,35.01
2018-06-17T09:07:03.822Z,34.75
2018-06-17T09:08:10.570Z,34.45
2018-06-17T09:09:17.510Z,34.40
2018-06-17T09:10:25.594Z,34.34
2018-06-17T09:11:32.296Z,34.24
2018-06-17T09:12:40.662Z,33.97
2018-06-17T09:13:48.773Z,33.87
2018-06-17T09:14:55.671Z,33.83
2018-06-17T09:16:02.567Z,33.63
2018-06-17T09:17:08.582Z,33.43
2018-06-17T09:18:15.272Z,33.23
2018-06-17T09:19:21.946Z,32.87
2018-06-17T09:20:29.912Z,32.53
2018-06-17T09:21:36.830Z,32.25
2018-06-17T09:22:44.144Z,32.17
2018-06-17T09:23:50.388Z,32.04
2018-06-17T09:24:57.800Z,31.92
2018-06-17T09:26:05.751Z,31.85
2018-06-17T09:27:12.870Z,31.86
2018-06-17T09:28:20.063Z,31.76
2018-06-17T09:29:27.098Z,31.66
2018-06-17T09:30:33.853Z,31.53
2018-06-17T09:31:41.590Z,31.54
2018-06-17T09:32:48.625Z,31.49
2018-06-17T09:33:55.495Z,31.59
2018-06-17T09:35:03.753Z,31.60
2018-06-17T09:36:10.750Z,31.71
2018-06-17T09:37:17.675Z,31.80
2018-06-17T09:38:24.597Z,31.88
2018-06-17T09:39:31.320Z,32.26
2018-06-17T09:40:37.959Z,32.87
2018-06-17T09:41:44.845Z,33.58
2018-06-17T09:42:51.989Z,34.26
2018-06-17T09:43:58.922Z,34.72
2018-06-17T09:45:06.002Z,34.99
2018-06-17T09:46:12.956Z,35.29
2018-06-17T09:47:20.061Z,35.47
2018-06-17T09:48:27.023Z,35.58
2018-06-17T09:49:33.666Z,35.62
2018-06-17T09:50:40.144Z,35.56
2018-06-17T09:51:47.120Z,35.29
2018-06-17T09:52:54.037Z,35.20
2018-06-17T09:54:01.737Z,34.99
2018-06-17T09:55:09.241Z,34.63
2018-06-17T09:56:16.274Z,34.38
2018-06-17T09:57:23.210Z,34.04
2018-06-17T09:58:29.998Z,33.66
2018-06-17T09:59:37.023Z,33.44
2018-06-17T10:00:44.143Z,33.27
2018-06-17T10:01:50.296Z,33.16
2018-06-17T10:02:57.627Z,33.00
2018-06-17T10:04:03.363Z,32.98
2018-06-17T10:05:09.521Z,32.77
2018-06-17T10:06:15.895Z,32.73
2018-06-17T10:07:21.920Z,32.77
2018-06-17T10:08:28.009Z,32.72
2018-06-17T10:09:45.235Z,32.94
2018-06-17T10:10:54.235Z,33.11
2018-06-17T10:12:01.882Z,33.36
2018-06-17T10:13:09.149Z,33.55
2018-06-17T10:14:16.303Z,33.64
2018-06-17T10:15:23.428Z,33.71
2018-06-17T10:16:32.314Z,33.61
2018-06-17T10:17:40.837Z,33.41
2018-06-17T10:18:48.823Z,33.30
2018-06-17T10:19:56.370Z,33.16
2018-06-17T10:21:03.719Z,33.07
2018-06-17T10:22:11.069Z,32.93
2018-06-17T10:23:18.730Z,32.79
2018-06-17T10:24:26.546Z,32.59
2018-06-17T10:25:34.140Z,32.30
2018-06-17T10:26:42.322Z,32.07
2018-06-17T10:27:49.261Z,31.85
2018-06-17T10:28:56.103Z,31.57
2018-06-17T10:30:02.889Z,31.33
2018-06-17T10:31:10.686Z,30.89
2018-06-17T10:32:18.886Z,30.55
2018-06-17T10:33:26.724Z,30.30
2018-06-17T10:34:33.900Z,30.15
2018-06-17T10:35:41.669Z,30.19
2018-06-17T10:36:49.797Z,30.26
2018-06-17T10:37:57.015Z,30.10
2018-06-17T10:39:08.826Z,29.97
2018-06-17T10:40:17.493Z,29.98
2018-06-17T10:41:25.418Z,29.96
2018-06-17T10:42:33.127Z,29.90
2018-06-17T10:43:40.737Z,29.82
2018-06-17T10:44:52.814Z,29.73
2018-06-17T10:46:01.967Z,29.66
2018-06-17T10:47:09.587Z,29.57
2018-06-17T10:48:17.404Z,29.54
2018-06-17T10:49:24.727Z,29.56
2018-06-17T10:50:32.882Z,29.55
2018-06-17T10:51:40.795Z,29.63
2018-06-17T10:52:48.019Z,29.79
2018-06-17T10:53:55.880Z,29.99
2018-06-17T10:55:02.745Z,30.08
2018-06-17T10:56:09.857Z,30.14
2018-06-17T10:57:18.628Z,30.15
2018-06-17T10:58:26.502Z,30.17
2018-06-17T10:59:33.919Z,30.23
2018-06-17T11:00:41.198Z,30.39
2018-06-17T11:01:48.550Z,30.28
2018-06-17T11:02:56.202Z,30.33
2018-06-17T11:04:04.139Z,30.22
2018-06-17T11:05:12.458Z,30.19
2018-06-17T11:06:19.852Z,30.22
2018-06-17T11:07:27.071Z,30.31
2018-06-17T11:08:34.368Z,30.44
2018-06-17T11:09:41.873Z,30.60
2018-06-17T11:10:49.774Z,30.69
2018-06-17T11:11:58.166Z,30.68
2018-06-17T11:13:05.582Z,30.73
2018-06-17T11:14:15.439Z,30.69
2018-06-17T11:15:22.865Z,30.70
2018-06-17T11:16:30.642Z,30.77
2018-06-17T11:17:38.543Z,30.81
2018-06-17T11:18:46.912Z,30.90
2018-06-17T11:19:57.153Z,30.95
2018-06-17T11:21:04.917Z,31.00
2018-06-17T11:22:13.145Z,31.07
2018-06-17T11:23:20.903Z,31.13
2018-06-17T11:24:30.406Z,31.16
2018-06-17T11:25:38.573Z,31.20
2018-06-17T11:26:47.193Z,31.29
2018-06-17T11:27:54.427Z,31.35
2018-06-17T11:29:01.572Z,31.33
2018-06-17T11:30:09.575Z,31.29
2018-06-17T11:31:18.020Z,31.35
2018-06-17T11:32:25.753Z,31.36
2018-06-17T11:33:34.021Z,31.29
2018-06-17T11:34:41.143Z,31.35
2018-06-17T11:35:48.872Z,31.51
2018-06-17T11:36:56.589Z,31.44
2018-06-17T11:38:03.728Z,31.24
2018-06-17T11:39:12.205Z,31.15
2018-06-17T11:40:20.745Z,31.18
2018-06-17T11:41:29.790Z,31.13
2018-06-17T11:42:37.285Z,31.29
2018-06-17T11:43:45.404Z,31.38
2018-06-17T11:44:52.966Z,31.27
2018-06-17T11:46:00.174Z,31.14
2018-06-17T11:47:07.658Z,31.17
2018-06-17T11:48:16.121Z,31.20
2018-06-17T11:49:24.577Z,31.09
2018-06-17T11:50:31.895Z,31.09
2018-06-17T11:51:38.616Z,31.09
2018-06-17T11:52:45.747Z,31.18
2018-06-17T11:53:52.890Z,31.18
2018-06-17T11:55:00.746Z,31.20
2018-06-17T11:56:09.144Z,30.98
2018-06-17T11:57:16.972Z,30.96
2018-06-17T11:58:25.016Z,31.08
2018-06-17T11:59:33.462Z,31.13
2018-06-17T12:00:41.914Z,31.14
2018-06-17T12:01:49.832Z,31.08
2018-06-17T12:02:58.738Z,31.14
2018-06-17T12:04:06.906Z,31.06
2018-06-17T12:05:16.761Z,31.10
2018-06-17T12:06:25.563Z,31.15
2018-06-17T12:07:32.751Z,31.28
2018-06-17T12:08:39.772Z,31.33
2018-06-17T12:09:47.330Z,31.33
2018-06-17T12:10:55.020Z,31.36
2018-06-17T12:12:02.330Z,31.12
2018-06-17T12:13:10.441Z,30.98
2018-06-17T12:14:18.105Z,30.66
2018-06-17T12:15:25.202Z,30.45
2018-06-17T12:16:32.926Z,30.45
2018-06-17T12:17:40.513Z,30.33
2018-06-17T12:18:47.699Z,30.22
2018-06-17T12:19:55.275Z,30.22
2018-06-17T12:21:03.627Z,30.24
2018-06-17T12:22:11.015Z,30.28
2018-06-17T12:23:23.213Z,30.30
2018-06-17T12:24:31.632Z,30.33
2018-06-17T12:25:38.794Z,30.33
2018-06-17T12:26:46.216Z,30.27
2018-06-17T12:27:58.319Z,30.29
2018-06-17T12:29:05.556Z,30.33
2018-06-17T12:30:14.020Z,30.33
2018-06-17T12:31:21.230Z,30.38
2018-06-17T12:32:28.531Z,30.43
2018-06-17T12:33:35.891Z,30.31
2018-06-17T12:34:42.615Z,30.17
2018-06-17T12:35:49.839Z,30.13
2018-06-17T12:36:57.841Z,29.99
2018-06-17T12:38:04.605Z,29.97
2018-06-17T12:39:13.784Z,30.04
2018-06-17T12:40:20.603Z,30.22
2018-06-17T12:41:28.724Z,30.30
2018-06-17T12:42:35.654Z,30.34
2018-06-17T12:43:42.820Z,30.23
2018-06-17T12:44:50.810Z,30.13
2018-06-17T12:45:58.722Z,29.99
2018-06-17T12:47:06.253Z,30.03
2018-06-17T12:48:13.279Z,30.05
2018-06-17T12:49:20.642Z,30.23
2018-06-17T12:50:30.598Z,30.39
2018-06-17T12:51:39.289Z,30.46
2018-06-17T12:52:46.491Z,30.40
2018-06-17T12:53:53.797Z,30.45
2018-06-17T12:55:01.813Z,30.36
2018-06-17T12:56:09.229Z,30.17
2018-06-17T12:57:16.373Z,30.03
2018-06-17T12:58:25.277Z,30.01
2018-06-17T12:59:34.169Z,29.91
2018-06-17T13:00:41.626Z,29.95
2018-06-17T13:01:51.330Z,30.01
2018-06-17T13:02:59.103Z,30.09
2018-06-17T13:04:07.467Z,30.05
2018-06-17T13:05:16.474Z,30.11
2018-06-17T13:06:23.900Z,30.15
2018-06-17T13:07:31.116Z,30.16
2018-06-17T13:08:38.207Z,30.23
2018-06-17T13:09:45.547Z,30.10
2018-06-17T13:10:53.060Z,30.11
2018-06-17T13:12:00.539Z,30.11
2018-06-17T13:13:07.982Z,29.85
2018-06-17T13:14:15.277Z,29.77
2018-06-17T13:15:22.309Z,29.66
2018-06-17T13:16:30.086Z,29.62
2018-06-17T13:17:37.616Z,29.67
2018-06-17T13:18:44.750Z,29.60
2018-06-17T13:19:51.905Z,29.54
2018-06-17T13:20:59.504Z,29.53
2018-06-17T13:22:08.396Z,29.58
2018-06-17T13:23:22.142Z,29.70
2018-06-17T13:24:30.971Z,29.74
2018-06-17T13:25:37.693Z,29.77
2018-06-17T13:26:44.864Z,29.86
2018-06-17T13:27:53.249Z,29.92
2018-06-17T13:29:00.749Z,30.05
2018-06-17T13:30:08.372Z,30.19
2018-06-17T13:31:15.688Z,30.27
2018-06-17T13:32:23.153Z,30.35
2018-06-17T13:33:31.118Z,30.39
2018-06-17T13:34:39.579Z,30.43
2018-06-17T13:35:46.799Z,30.44
2018-06-17T13:36:54.504Z,30.51
2018-06-17T13:38:01.388Z,30.50
2018-06-17T13:39:10.257Z,30.50
2018-06-17T13:40:17.602Z,30.56
2018-06-17T13:41:26.638Z,30.54
2018-06-17T13:42:33.844Z,30.54
2018-06-17T13:43:41.448Z,30.63
2018-06-17T13:44:48.975Z,30.68
2018-06-17T13:45:55.995Z,30.56
2018-06-17T13:47:03.927Z,30.42
2018-06-17T13:48:10.564Z,30.30
2018-06-17T13:49:17.505Z,30.29
2018-06-17T13:50:24.860Z,30.27
2018-06-17T13:51:32.327Z,30.24
2018-06-17T13:52:41.562Z,30.25
2018-06-17T13:53:49.348Z,30.25
2018-06-17T13:54:56.507Z,30.30
2018-06-17T13:56:03.690Z,30.35
2018-06-17T13:57:11.452Z,30.34
2018-06-17T13:58:18.622Z,30.27
2018-06-17T13:59:25.837Z,30.28
2018-06-17T14:00:32.165Z,30.19
2018-06-17T14:01:38.293Z,30.12
2018-06-17T14:02:45.520Z,30.05
2018-06-17T14:03:52.473Z,30.04
2018-06-17T14:05:00.228Z,30.13
2018-06-17T14:06:06.821Z,30.21
2018-06-17T14:07:12.968Z,30.25
2018-06-17T14:08:19.343Z,30.29
2018-06-17T14:09:25.821Z,30.34
2018-06-17T14:10:32.367Z,30.39
2018-06-17T14:11:39.366Z,30.47
2018-06-17T14:12:46.084Z,30.53
2018-06-17T14:13:52.737Z,30.48
2018-06-17T14:14:58.816Z,30.56
2018-06-17T14:16:05.481Z,30.66
2018-06-17T14:17:12.206Z,30.73
2018-06-17T14:18:19.045Z,30.74
2018-06-17T14:19:25.709Z,30.73
2018-06-17T14:20:32.463Z,30.68
2018-06-17T14:21:39.113Z,30.59
2018-06-17T14:22:45.858Z,30.52
2018-06-17T14:23:52.520Z,30.47
2018-06-17T14:24:59.071Z,30.53
2018-06-17T14:26:05.755Z,30.51
2018-06-17T14:27:12.383Z,30.56
2018-06-17T14:28:18.921Z,30.66
2018-06-17T14:29:25.442Z,30.69
2018-06-17T14:30:32.130Z,30.70